Chesterfield, MI (48051)

2:15 AM EST on November 24, 2014 (GMT -0500)
Valley Forge Subdivision | Change Station
CLOSE
Current Station
Personal Weather Station
Location: Macomb, MI
Elevation: 607 ft
Nearby Weather Stations
Active Advisory: High Wind Watch Active Notice: Public Information Statement

Elev 607 ft 42.65 °N, 82.95 °W | Updated 3 seconds ago

Rain
Rain
49.1 °F
Feels Like 46 °F
N
6.3
Wind Variable Wind from West
Gusts 9.2 mph

Today
High -- | Low -- °F
--% Chance of Precip.
Yesterday
High -- | Low -- °F
Precip. -- in
7:33 AM 5:01 PM
Waxing Crescent, 4% visible
Pressure 29.13 in
Visibility 10.0 miles
Clouds Overcast 500 ft
Windchill 46 °F
Dew Point 49 °F
Humidity 99%
Rainfall 0.30 in
Snow Depth Not available.
UV 0 out of 12
Pollen .10 out of 12
Air Quality Not available.
Flu Activity Not available.
METAR KMTC 240658Z AUTO 16018G24KT 10SM OVC005 09/09 A2911 RMK AO2 RAE0645 SLP862 P0006 T00910091

More Conditions Fewer Conditions

Pressure 29.13 in
Visibility 10.0 miles
Clouds Overcast 500 ft
Windchill 46 °F
Dew Point 49 °F
Humidity 99%
Rainfall 0.30 in
Snow Depth Not available.
UV 0 out of 12
Pollen .10 out of 12
Air Quality Not available.
Flu Activity Not available.
METAR KMTC 240658Z AUTO 16018G24KT 10SM OVC005 09/09 A2911 RMK AO2 RAE0645 SLP862 P0006 T00910091

More Conditions Fewer Conditions

10-Day Weather Forecast

Almanac

Astronomy

Nov. 24, 2014 Rise Set
Actual Time
Civil Twilight
Nautical Twilight
Astronomical Twilight
Moon
Length of Visible Light
Length of Day
Tomorrow will be .
, % of the Moon is Illuminated

Today's Extremes

State Highs State Lows

Community

WunderPhotos

Upload Photos

1,773,295 photos uploaded!

WunderBlogs® & News

Nearby

Air Quality

  Air Quality AQ Index Pollutant
Not available.

Snow Depth

Station Depth Elevation

Earthquake Activity

City Distance Mag. Time & Date
Minimum magnitude displayed is 2.5.

Coastal Water Temperatures

Place Temperature

Nearby Weather Stations